createdAt,value
2018-07-08T00:00:57.957Z,16.89
2018-07-08T00:01:57.956Z,16.91
2018-07-08T00:02:57.958Z,16.94
2018-07-08T00:03:57.957Z,16.80
2018-07-08T00:04:57.958Z,16.80
2018-07-08T00:05:57.958Z,16.86
2018-07-08T00:06:57.962Z,16.77
2018-07-08T00:07:57.959Z,16.80
2018-07-08T00:08:57.960Z,16.79
2018-07-08T00:09:57.959Z,16.79
2018-07-08T00:10:57.959Z,16.77
2018-07-08T00:11:57.960Z,16.87
2018-07-08T00:12:57.961Z,16.76
2018-07-08T00:13:57.960Z,16.86
2018-07-08T00:14:57.962Z,16.77
2018-07-08T00:15:57.962Z,16.82
2018-07-08T00:16:57.961Z,16.89
2018-07-08T00:17:57.961Z,16.80
2018-07-08T00:18:57.962Z,16.80
2018-07-08T00:19:57.963Z,16.79
2018-07-08T00:20:57.963Z,16.83
2018-07-08T00:21:57.963Z,16.76
2018-07-08T00:22:57.963Z,16.74
2018-07-08T00:23:57.963Z,16.80
2018-07-08T00:24:57.964Z,16.74
2018-07-08T00:25:57.964Z,16.83
2018-07-08T00:26:57.963Z,16.76
2018-07-08T00:27:57.963Z,16.76
2018-07-08T00:28:57.965Z,16.68
2018-07-08T00:29:57.964Z,16.68
2018-07-08T00:30:57.964Z,16.65
2018-07-08T00:31:57.965Z,16.65
2018-07-08T00:32:57.965Z,16.69
2018-07-08T00:33:57.966Z,16.68
2018-07-08T00:34:57.965Z,16.65
2018-07-08T00:35:57.966Z,16.69
2018-07-08T00:36:57.966Z,16.64
2018-07-08T00:37:57.967Z,16.72
2018-07-08T00:38:57.966Z,16.66
2018-07-08T00:39:58.024Z,16.68
2018-07-08T00:40:57.966Z,16.72
2018-07-08T00:41:57.967Z,16.64
2018-07-08T00:42:57.968Z,16.64
2018-07-08T00:43:57.966Z,16.59
2018-07-08T00:44:57.968Z,16.69
2018-07-08T00:45:57.966Z,16.61
2018-07-08T00:46:57.967Z,16.72
2018-07-08T00:47:57.967Z,16.66
2018-07-08T00:48:57.967Z,16.65
2018-07-08T00:49:57.967Z,16.69
2018-07-08T00:50:57.969Z,16.73
2018-07-08T00:51:57.968Z,16.72
2018-07-08T00:52:57.968Z,16.66
2018-07-08T00:53:57.968Z,16.57
2018-07-08T00:54:57.967Z,16.66
2018-07-08T00:55:57.968Z,16.65
2018-07-08T00:56:57.969Z,16.59
2018-07-08T00:57:57.967Z,16.57
2018-07-08T00:58:57.970Z,16.59
2018-07-08T00:59:57.968Z,16.58
2018-07-08T01:00:57.970Z,16.55
2018-07-08T01:01:57.968Z,16.58
2018-07-08T01:02:57.969Z,16.64
2018-07-08T01:03:57.970Z,16.57
2018-07-08T01:04:57.969Z,16.61
2018-07-08T01:05:57.968Z,16.54
2018-07-08T01:06:57.994Z,16.59
2018-07-08T01:07:57.969Z,16.57
2018-07-08T01:08:57.969Z,16.57
2018-07-08T01:09:57.968Z,16.57
2018-07-08T01:10:57.970Z,16.57
2018-07-08T01:11:57.969Z,16.64
2018-07-08T01:12:57.970Z,16.59
2018-07-08T01:13:57.967Z,16.57
2018-07-08T01:14:57.972Z,16.58
2018-07-08T01:15:57.969Z,16.66
2018-07-08T01:16:57.968Z,16.61
2018-07-08T01:17:57.972Z,16.64
2018-07-08T01:18:57.969Z,16.58
2018-07-08T01:19:57.969Z,16.61
2018-07-08T01:20:57.968Z,16.58
2018-07-08T01:21:57.967Z,16.66
2018-07-08T01:22:57.971Z,16.64
2018-07-08T01:23:57.968Z,16.62
2018-07-08T01:24:57.969Z,16.57
2018-07-08T01:25:57.968Z,16.59
2018-07-08T01:26:57.968Z,16.54
2018-07-08T01:27:57.968Z,16.40
2018-07-08T01:28:57.969Z,16.43
2018-07-08T01:29:57.968Z,16.37
2018-07-08T01:30:57.968Z,16.37
2018-07-08T01:31:57.968Z,16.34
2018-07-08T01:32:57.968Z,16.36
2018-07-08T01:33:57.968Z,16.41
2018-07-08T01:34:57.968Z,16.44
2018-07-08T01:35:57.967Z,16.40
2018-07-08T01:37:31.178Z,16.40
2018-07-08T01:37:57.968Z,16.39
2018-07-08T01:38:57.967Z,16.47
2018-07-08T01:39:57.970Z,16.43
2018-07-08T01:40:57.968Z,16.41
2018-07-08T01:41:57.967Z,16.40
2018-07-08T01:42:57.968Z,16.39
2018-07-08T01:43:57.967Z,16.39
2018-07-08T01:44:57.967Z,16.40
2018-07-08T01:45:57.966Z,16.29
2018-07-08T01:46:57.974Z,16.31
2018-07-08T01:47:57.967Z,16.28
2018-07-08T01:48:57.969Z,16.34
2018-07-08T01:49:57.966Z,16.31
2018-07-08T01:50:57.966Z,16.26
2018-07-08T01:51:57.966Z,16.34
2018-07-08T01:52:57.967Z,16.25
2018-07-08T01:53:57.967Z,16.29
2018-07-08T01:54:57.965Z,16.26
2018-07-08T01:55:57.966Z,16.32
2018-07-08T01:56:57.965Z,16.24
2018-07-08T01:57:57.965Z,16.31
2018-07-08T01:58:57.964Z,16.24
2018-07-08T01:59:57.968Z,16.29
2018-07-08T02:00:57.966Z,16.31
2018-07-08T02:01:57.964Z,16.32
2018-07-08T02:02:57.965Z,16.26
2018-07-08T02:03:57.965Z,16.17
2018-07-08T02:04:57.964Z,16.17
2018-07-08T02:05:57.965Z,16.18
2018-07-08T02:06:57.978Z,16.17
2018-07-08T02:07:57.964Z,16.03
2018-07-08T02:08:57.964Z,16.12
2018-07-08T02:09:57.962Z,16.09
2018-07-08T02:10:57.965Z,16.08
2018-07-08T02:11:57.963Z,16.13
2018-07-08T02:12:57.962Z,16.16
2018-07-08T02:13:57.962Z,16.18
2018-07-08T02:14:57.963Z,16.13
2018-07-08T02:15:57.961Z,16.17
2018-07-08T02:16:57.965Z,16.22
2018-07-08T02:17:57.965Z,16.16
2018-07-08T02:18:57.963Z,16.24
2018-07-08T02:19:57.963Z,16.22
2018-07-08T02:20:57.965Z,16.22
2018-07-08T02:21:57.959Z,16.16
2018-07-08T02:22:57.960Z,16.24
2018-07-08T02:23:57.960Z,16.31
2018-07-08T02:24:57.960Z,16.28
2018-07-08T02:25:57.959Z,16.36
2018-07-08T02:26:57.960Z,16.31
2018-07-08T02:27:57.960Z,16.29
2018-07-08T02:28:57.958Z,16.29
2018-07-08T02:29:57.958Z,16.32
2018-07-08T02:30:57.963Z,16.36
2018-07-08T02:31:57.958Z,16.26
2018-07-08T02:32:57.958Z,16.28
2018-07-08T02:33:57.957Z,16.28
2018-07-08T02:34:57.958Z,16.26
2018-07-08T02:35:57.957Z,16.29
2018-07-08T02:36:57.957Z,16.28
2018-07-08T02:37:57.956Z,16.17
2018-07-08T02:38:57.956Z,16.21
2018-07-08T02:39:57.957Z,16.28
2018-07-08T02:40:57.957Z,16.31
2018-07-08T02:41:57.957Z,16.26
2018-07-08T02:42:57.956Z,16.22
2018-07-08T02:43:57.957Z,16.32
2018-07-08T02:44:57.955Z,16.37
2018-07-08T02:45:57.953Z,16.31
2018-07-08T02:46:57.955Z,16.25
2018-07-08T02:47:57.956Z,16.29
2018-07-08T02:48:57.955Z,16.34
2018-07-08T02:49:57.954Z,16.32
2018-07-08T02:50:57.959Z,16.32
2018-07-08T02:51:57.960Z,16.28
2018-07-08T02:52:57.954Z,16.22
2018-07-08T02:53:57.957Z,16.40
2018-07-08T02:54:57.953Z,16.25
2018-07-08T02:55:57.953Z,16.29
2018-07-08T02:56:57.956Z,16.31
2018-07-08T02:57:57.952Z,16.24
2018-07-08T02:58:57.956Z,16.22
2018-07-08T02:59:57.954Z,16.21
2018-07-08T03:00:57.955Z,16.13
2018-07-08T03:01:57.951Z,16.16
2018-07-08T03:02:57.951Z,16.21
2018-07-08T03:03:57.952Z,16.17
2018-07-08T03:04:57.952Z,16.13
2018-07-08T03:05:57.950Z,16.17
2018-07-08T03:06:57.951Z,16.13
2018-07-08T03:07:57.955Z,16.13
2018-07-08T03:08:57.950Z,16.13
2018-07-08T03:09:57.953Z,16.08
2018-07-08T03:10:57.950Z,16.16
2018-07-08T03:11:57.949Z,16.22
2018-07-08T03:12:57.950Z,16.21
2018-07-08T03:13:57.949Z,16.18
2018-07-08T03:14:57.950Z,16.13
2018-07-08T03:15:57.948Z,16.03
2018-07-08T03:16:57.949Z,16.06
2018-07-08T03:17:57.947Z,16.08
2018-07-08T03:18:57.947Z,16.09
2018-07-08T03:19:57.948Z,16.05
2018-07-08T03:20:57.950Z,16.09
2018-07-08T03:21:57.946Z,16.08
2018-07-08T03:22:57.947Z,16.06
2018-07-08T03:23:57.945Z,16.06
2018-07-08T03:24:57.944Z,16.12
2018-07-08T03:25:57.944Z,16.02
2018-07-08T03:26:57.956Z,16.03
2018-07-08T03:27:57.944Z,15.98
2018-07-08T03:28:57.945Z,16.06
2018-07-08T03:29:57.943Z,16.06
2018-07-08T03:30:57.943Z,16.10
2018-07-08T03:31:57.946Z,16.06
2018-07-08T03:32:57.942Z,16.06
2018-07-08T03:33:57.942Z,16.02
2018-07-08T03:34:57.945Z,15.92
2018-07-08T03:35:57.941Z,16.00
2018-07-08T03:36:57.940Z,15.98
2018-07-08T03:37:57.939Z,15.92
2018-07-08T03:38:57.940Z,15.91
2018-07-08T03:39:57.938Z,15.94
2018-07-08T03:40:57.939Z,15.91
2018-07-08T03:41:57.937Z,15.88
2018-07-08T03:42:57.938Z,15.91
2018-07-08T03:43:57.938Z,15.84
2018-07-08T03:44:57.938Z,15.87
2018-07-08T03:45:57.937Z,15.88
2018-07-08T03:46:57.936Z,15.92
2018-07-08T03:47:57.936Z,15.81
2018-07-08T03:48:57.936Z,15.96
2018-07-08T03:49:57.935Z,15.96
2018-07-08T03:50:57.935Z,15.88
2018-07-08T03:51:57.934Z,15.91
2018-07-08T03:52:57.933Z,15.85
2018-07-08T03:53:57.933Z,15.98
2018-07-08T03:54:57.932Z,15.94
2018-07-08T03:55:57.932Z,15.88
2018-07-08T03:56:57.932Z,15.96
2018-07-08T03:57:57.931Z,15.96
2018-07-08T03:58:57.930Z,16.05
2018-07-08T03:59:57.931Z,16.06
2018-07-08T04:00:57.930Z,15.99
2018-07-08T04:01:57.929Z,15.92
2018-07-08T04:02:57.933Z,15.99
2018-07-08T04:03:57.929Z,15.99
2018-07-08T04:04:57.930Z,16.00
2018-07-08T04:05:57.928Z,15.94
2018-07-08T04:06:57.928Z,16.05
2018-07-08T04:07:57.927Z,16.09
2018-07-08T04:08:57.930Z,16.08
2018-07-08T04:09:57.926Z,16.16
2018-07-08T04:10:57.930Z,16.05
2018-07-08T04:11:57.927Z,16.05
2018-07-08T04:12:57.929Z,16.13
2018-07-08T04:13:57.925Z,16.17
2018-07-08T04:14:57.924Z,16.21
2018-07-08T04:15:57.924Z,16.17
2018-07-08T04:16:57.924Z,16.21
2018-07-08T04:17:57.924Z,16.18
2018-07-08T04:18:57.924Z,16.16
2018-07-08T04:19:57.923Z,16.13
2018-07-08T04:20:57.924Z,16.10
2018-07-08T04:21:57.926Z,16.10
2018-07-08T04:22:57.922Z,16.18
2018-07-08T04:23:57.923Z,16.13
2018-07-08T04:24:57.923Z,16.17
2018-07-08T04:25:57.923Z,16.16
2018-07-08T04:26:57.921Z,16.21
2018-07-08T04:27:57.921Z,16.24
2018-07-08T04:28:57.923Z,16.12
2018-07-08T04:29:57.920Z,16.22
2018-07-08T04:30:57.920Z,16.21
2018-07-08T04:31:57.920Z,16.21
2018-07-08T04:32:57.921Z,16.26
2018-07-08T04:33:57.920Z,16.29
2018-07-08T04:34:57.919Z,16.26
2018-07-08T04:35:57.920Z,16.21
2018-07-08T04:36:57.920Z,16.29
2018-07-08T04:37:57.920Z,16.31
2018-07-08T04:38:57.919Z,16.26
2018-07-08T04:39:57.918Z,16.26
2018-07-08T04:40:57.917Z,16.34
2018-07-08T04:41:57.917Z,16.31
2018-07-08T04:42:57.919Z,16.41
2018-07-08T04:43:57.916Z,16.26
2018-07-08T04:44:57.916Z,16.29
2018-07-08T04:45:57.916Z,16.34
2018-07-08T04:46:57.916Z,16.29
2018-07-08T04:47:57.917Z,16.26
2018-07-08T04:48:57.916Z,16.28
2018-07-08T04:49:57.915Z,16.24
2018-07-08T04:50:57.916Z,16.29
2018-07-08T04:51:57.916Z,16.25
2018-07-08T04:52:57.918Z,16.24
2018-07-08T04:53:57.917Z,16.26
2018-07-08T04:54:57.914Z,16.39
2018-07-08T04:55:57.915Z,16.44
2018-07-08T04:56:57.915Z,16.49
2018-07-08T04:57:57.914Z,16.50
2018-07-08T04:58:57.914Z,16.47
2018-07-08T04:59:57.915Z,16.41
2018-07-08T05:00:57.922Z,16.41
2018-07-08T05:01:57.913Z,16.39
2018-07-08T05:02:57.914Z,16.39
2018-07-08T05:03:57.913Z,16.41
2018-07-08T05:04:57.913Z,16.44
2018-07-08T05:05:57.912Z,16.43
2018-07-08T05:06:57.912Z,16.41
2018-07-08T05:07:57.912Z,16.43
2018-07-08T05:08:57.913Z,16.43
2018-07-08T05:09:57.912Z,16.46
2018-07-08T05:10:57.912Z,16.46
2018-07-08T05:11:57.912Z,16.46
2018-07-08T05:12:57.912Z,16.39
2018-07-08T05:13:57.911Z,16.47
2018-07-08T05:14:57.912Z,16.50
2018-07-08T05:15:57.912Z,16.49
2018-07-08T05:16:57.911Z,16.54
2018-07-08T05:17:57.910Z,16.55
2018-07-08T05:18:57.911Z,16.61
2018-07-08T05:19:57.911Z,16.57
2018-07-08T05:20:57.911Z,16.64
2018-07-08T05:21:57.911Z,16.59
2018-07-08T05:22:57.911Z,16.58
2018-07-08T05:23:57.911Z,16.66
2018-07-08T05:24:57.911Z,16.66
2018-07-08T05:25:57.910Z,16.58
2018-07-08T05:26:57.911Z,16.65
2018-07-08T05:27:57.911Z,16.72
2018-07-08T05:28:57.911Z,16.72
2018-07-08T05:29:57.912Z,16.76
2018-07-08T05:30:57.911Z,16.76
2018-07-08T05:31:57.911Z,16.82
2018-07-08T05:32:57.912Z,16.87
2018-07-08T05:33:57.914Z,16.76
2018-07-08T05:34:57.912Z,16.86
2018-07-08T05:35:57.911Z,16.84
2018-07-08T05:36:57.912Z,16.79
2018-07-08T05:37:57.912Z,16.87
2018-07-08T05:38:57.912Z,16.77
2018-07-08T05:39:57.912Z,16.80
2018-07-08T05:40:57.913Z,16.91
2018-07-08T05:41:57.913Z,16.98
2018-07-08T05:42:57.913Z,16.95
2018-07-08T05:43:57.914Z,16.92
2018-07-08T05:44:57.915Z,16.94
2018-07-08T05:45:57.913Z,16.99
2018-07-08T05:46:57.913Z,16.97
2018-07-08T05:47:57.916Z,16.94
2018-07-08T05:48:57.914Z,17.01
2018-07-08T05:49:57.914Z,17.02
2018-07-08T05:50:57.914Z,17.14
2018-07-08T05:51:57.916Z,17.16
2018-07-08T05:52:57.916Z,17.04
2018-07-08T05:53:57.915Z,17.19
2018-07-08T05:54:57.916Z,17.09
2018-07-08T05:55:57.916Z,17.19
2018-07-08T05:56:57.921Z,17.28
2018-07-08T05:57:57.918Z,17.27
2018-07-08T05:58:57.919Z,17.20
2018-07-08T05:59:57.919Z,17.19
2018-07-08T06:00:57.919Z,17.39
2018-07-08T06:01:57.919Z,17.32
2018-07-08T06:02:57.920Z,17.35
2018-07-08T06:03:57.921Z,17.31
2018-07-08T06:04:57.921Z,17.30
2018-07-08T06:05:57.921Z,17.35
2018-07-08T06:06:57.921Z,17.34
2018-07-08T06:07:57.922Z,17.37
2018-07-08T06:08:57.923Z,17.41
2018-07-08T06:09:57.925Z,17.37
2018-07-08T06:10:57.925Z,17.42
2018-07-08T06:11:57.926Z,17.44
2018-07-08T06:12:57.928Z,17.42
2018-07-08T06:13:57.928Z,17.42
2018-07-08T06:14:57.926Z,17.42
2018-07-08T06:15:57.930Z,17.41
2018-07-08T06:16:57.963Z,17.38
2018-07-08T06:17:57.926Z,17.53
2018-07-08T06:18:57.928Z,17.54
2018-07-08T06:19:57.929Z,17.63
2018-07-08T06:20:57.929Z,17.63
2018-07-08T06:21:57.930Z,17.71
2018-07-08T06:22:57.931Z,17.68
2018-07-08T06:23:57.932Z,17.59
2018-07-08T06:24:57.935Z,17.60
2018-07-08T06:25:57.988Z,17.57
2018-07-08T06:26:57.933Z,17.72
2018-07-08T06:27:57.934Z,17.75
2018-07-08T06:28:57.935Z,17.72
2018-07-08T06:29:57.934Z,17.75
2018-07-08T06:30:57.935Z,17.79
2018-07-08T06:31:57.937Z,17.79
2018-07-08T06:32:57.937Z,17.93
2018-07-08T06:33:57.939Z,17.91
2018-07-08T06:34:57.938Z,17.93
2018-07-08T06:35:57.942Z,17.90
2018-07-08T06:36:57.942Z,17.94
2018-07-08T06:37:57.939Z,18.00
2018-07-08T06:38:57.942Z,17.98
2018-07-08T06:39:57.944Z,18.03
2018-07-08T06:40:57.945Z,18.06
2018-07-08T06:41:57.944Z,18.02
2018-07-08T06:42:57.946Z,18.09
2018-07-08T06:43:57.948Z,18.21
2018-07-08T06:44:57.947Z,18.18
2018-07-08T06:45:57.950Z,18.31
2018-07-08T06:46:57.950Z,18.27
2018-07-08T06:47:57.952Z,18.30
2018-07-08T06:48:57.953Z,18.36
2018-07-08T06:49:57.953Z,18.45
2018-07-08T06:50:57.955Z,18.43
2018-07-08T06:51:58.012Z,18.45
2018-07-08T06:52:57.958Z,18.53
2018-07-08T06:53:57.959Z,18.53
2018-07-08T06:54:57.960Z,18.58
2018-07-08T06:55:57.961Z,18.60
2018-07-08T06:56:57.963Z,18.55
2018-07-08T06:57:58.083Z,18.58
2018-07-08T06:58:57.965Z,18.64
2018-07-08T06:59:57.966Z,18.57
2018-07-08T07:00:57.969Z,18.58
2018-07-08T07:01:57.969Z,18.57
2018-07-08T07:02:57.974Z,18.68
2018-07-08T07:03:57.972Z,18.67
2018-07-08T07:04:57.976Z,18.67
2018-07-08T07:05:57.975Z,18.73
2018-07-08T07:06:57.977Z,18.78
2018-07-08T07:07:57.983Z,18.74
2018-07-08T07:08:57.984Z,18.73
2018-07-08T07:09:57.981Z,18.91
2018-07-08T07:10:57.983Z,19.00
2018-07-08T07:11:57.985Z,19.05
2018-07-08T07:12:57.987Z,19.17
2018-07-08T07:13:57.988Z,19.38
2018-07-08T07:14:57.990Z,19.35
2018-07-08T07:15:57.993Z,19.30
2018-07-08T07:16:57.995Z,19.41
2018-07-08T07:17:57.997Z,19.45
2018-07-08T07:18:57.999Z,19.37
2018-07-08T07:19:58.001Z,19.45
2018-07-08T07:20:58.003Z,19.49
2018-07-08T07:21:58.004Z,19.64
2018-07-08T07:22:58.026Z,19.64
2018-07-08T07:23:58.009Z,19.64
2018-07-08T07:24:58.011Z,19.78
2018-07-08T07:25:58.012Z,19.72
2018-07-08T07:26:58.015Z,19.77
2018-07-08T07:27:58.018Z,19.81
2018-07-08T07:28:58.020Z,19.75
2018-07-08T07:29:58.022Z,19.72
2018-07-08T07:30:58.026Z,19.77
2018-07-08T07:31:58.030Z,19.79
2018-07-08T07:32:58.031Z,19.79
2018-07-08T07:33:58.032Z,19.96
2018-07-08T07:34:58.033Z,19.96
2018-07-08T07:35:58.037Z,19.97
2018-07-08T07:36:58.068Z,19.99
2018-07-08T07:37:58.071Z,20.11
2018-07-08T07:38:58.043Z,20.10
2018-07-08T07:39:58.048Z,20.03
2018-07-08T07:40:58.055Z,20.03
2018-07-08T07:41:58.169Z,19.94
2018-07-08T07:42:58.054Z,19.97
2018-07-08T07:43:58.059Z,20.00
2018-07-08T07:44:58.064Z,19.93
2018-07-08T07:45:58.065Z,19.96
2018-07-08T07:46:58.065Z,19.93
2018-07-08T07:47:58.069Z,19.93
2018-07-08T07:48:58.073Z,19.97
2018-07-08T07:49:58.075Z,20.08
2018-07-08T07:50:58.077Z,20.14
2018-07-08T07:51:58.079Z,20.17
2018-07-08T07:52:58.084Z,20.10
2018-07-08T07:53:58.085Z,20.17
2018-07-08T07:54:58.088Z,20.21
2018-07-08T07:55:58.091Z,20.22
2018-07-08T07:56:58.096Z,20.22
2018-07-08T07:57:58.095Z,20.27
2018-07-08T07:58:58.130Z,20.22
2018-07-08T07:59:58.103Z,20.18
2018-07-08T08:00:58.106Z,20.18
2018-07-08T08:01:58.110Z,20.22
2018-07-08T08:02:58.111Z,20.21
2018-07-08T08:03:58.115Z,20.32
2018-07-08T08:04:58.118Z,20.37
2018-07-08T08:05:58.120Z,20.83
2018-07-08T08:06:58.123Z,21.13
2018-07-08T08:07:58.127Z,20.95
2018-07-08T08:08:58.132Z,20.83
2018-07-08T08:09:58.133Z,20.67
2018-07-08T08:10:58.137Z,20.63
2018-07-08T08:11:58.141Z,20.89
2018-07-08T08:12:58.145Z,21.60
2018-07-08T08:13:58.212Z,21.75
2018-07-08T08:14:58.153Z,21.59
2018-07-08T08:15:58.157Z,21.51
2018-07-08T08:16:58.161Z,21.41
2018-07-08T08:17:58.165Z,21.35
2018-07-08T08:18:58.173Z,21.26
2018-07-08T08:19:58.178Z,21.11
2018-07-08T08:20:58.225Z,21.14
2018-07-08T08:21:58.182Z,21.05
2018-07-08T08:22:58.186Z,21.13
2018-07-08T08:23:58.195Z,21.15
2018-07-08T08:24:58.195Z,21.01
2018-07-08T08:25:58.197Z,20.96
2018-07-08T08:26:58.201Z,20.96
2018-07-08T08:27:58.205Z,20.93
2018-07-08T08:28:58.209Z,20.80
2018-07-08T08:29:58.212Z,20.77
2018-07-08T08:30:58.216Z,20.59
2018-07-08T08:31:59.086Z,20.64
2018-07-08T08:32:58.224Z,20.66
2018-07-08T08:33:58.227Z,20.74
2018-07-08T08:34:58.230Z,20.78
2018-07-08T08:35:58.234Z,20.93
2018-07-08T08:36:58.238Z,21.00
2018-07-08T08:37:58.240Z,21.01
2018-07-08T08:38:58.259Z,21.05
2018-07-08T08:39:58.249Z,21.15
2018-07-08T08:40:58.549Z,21.14
2018-07-08T08:41:58.257Z,21.14
2018-07-08T08:42:58.610Z,21.20
2018-07-08T08:43:58.263Z,21.41
2018-07-08T08:44:58.269Z,22.00
2018-07-08T08:45:58.324Z,21.96
2018-07-08T08:46:58.278Z,22.25
2018-07-08T08:47:58.281Z,22.70
2018-07-08T08:48:58.349Z,23.25
2018-07-08T08:49:58.295Z,23.63
2018-07-08T08:50:58.295Z,24.04
2018-07-08T08:51:58.303Z,24.28
2018-07-08T08:52:58.312Z,24.46
2018-07-08T08:53:58.617Z,24.55
2018-07-08T08:54:58.324Z,24.94
2018-07-08T08:55:58.332Z,24.58
2018-07-08T08:56:58.340Z,24.55
2018-07-08T08:57:58.494Z,25.11
2018-07-08T08:58:58.747Z,25.15
2018-07-08T08:59:58.365Z,25.31
2018-07-08T09:00:58.374Z,25.30
2018-07-08T09:01:58.820Z,25.46
2018-07-08T09:02:58.392Z,25.54
2018-07-08T09:03:58.551Z,25.77
2018-07-08T09:04:58.654Z,26.10
2018-07-08T09:05:58.420Z,26.26
2018-07-08T09:06:58.455Z,26.30
2018-07-08T09:07:58.442Z,26.31
2018-07-08T09:08:58.452Z,25.86
2018-07-08T09:09:58.465Z,25.15
2018-07-08T09:10:58.563Z,24.56
2018-07-08T09:11:58.483Z,24.19
2018-07-08T09:12:58.497Z,23.95
2018-07-08T09:13:58.675Z,23.89
2018-07-08T09:14:58.828Z,23.86
2018-07-08T09:15:58.927Z,23.85
2018-07-08T09:16:58.788Z,23.86
2018-07-08T09:17:58.765Z,23.88
2018-07-08T09:18:58.841Z,23.77
2018-07-08T09:19:58.770Z,23.86
2018-07-08T09:20:59.004Z,23.94
2018-07-08T09:21:58.805Z,23.91
2018-07-08T09:22:58.572Z,23.92
2018-07-08T09:23:58.622Z,23.91
2018-07-08T09:24:58.588Z,23.89
2018-07-08T09:25:58.593Z,23.89
2018-07-08T09:26:58.828Z,23.94
2018-07-08T09:27:58.990Z,23.91
2018-07-08T09:28:58.912Z,23.89
2018-07-08T09:29:58.620Z,23.86
2018-07-08T09:30:58.628Z,23.81
2018-07-08T09:31:58.938Z,23.70
2018-07-08T09:32:58.971Z,23.71
2018-07-08T09:33:58.965Z,23.70
2018-07-08T09:34:58.958Z,23.64
2018-07-08T09:35:58.659Z,23.58
2018-07-08T09:36:58.677Z,23.54
2018-07-08T09:37:58.951Z,23.56
2018-07-08T09:38:58.862Z,23.58
2018-07-08T09:39:58.683Z,23.74
2018-07-08T09:40:58.691Z,24.19
2018-07-08T09:41:58.696Z,24.48
2018-07-08T09:42:58.704Z,24.55
2018-07-08T09:43:58.711Z,24.96
2018-07-08T09:44:58.717Z,25.30
2018-07-08T09:45:58.740Z,25.73
2018-07-08T09:46:58.731Z,25.89
2018-07-08T09:47:59.032Z,26.10
2018-07-08T09:48:58.753Z,26.29
2018-07-08T09:49:58.757Z,26.68
2018-07-08T09:50:58.767Z,26.71
2018-07-08T09:51:58.777Z,27.00
2018-07-08T09:52:58.787Z,26.64
2018-07-08T09:53:58.796Z,26.68
2018-07-08T09:54:58.804Z,26.82
2018-07-08T09:55:58.816Z,27.11
2018-07-08T09:56:58.827Z,26.92
2018-07-08T09:57:58.848Z,26.71
2018-07-08T09:58:58.846Z,26.44
2018-07-08T09:59:58.859Z,26.11
2018-07-08T10:00:58.865Z,25.80
2018-07-08T10:01:58.875Z,25.56
2018-07-08T10:02:58.884Z,25.31
2018-07-08T10:03:58.892Z,25.14
2018-07-08T10:04:58.911Z,24.79
2018-07-08T10:05:58.908Z,24.53
2018-07-08T10:06:58.917Z,24.32
2018-07-08T10:07:58.925Z,24.21
2018-07-08T10:08:58.933Z,24.01
2018-07-08T10:09:58.942Z,23.88
2018-07-08T10:10:59.005Z,23.67
2018-07-08T10:11:58.953Z,23.74
2018-07-08T10:12:58.960Z,23.67
2018-07-08T10:13:59.032Z,23.69
2018-07-08T10:14:58.974Z,23.62
2018-07-08T10:15:58.980Z,23.69
2018-07-08T10:16:58.987Z,23.67
2018-07-08T10:17:58.995Z,24.16
2018-07-08T10:18:59.000Z,24.63
2018-07-08T10:19:59.057Z,25.04
2018-07-08T10:20:59.014Z,25.52
2018-07-08T10:21:59.020Z,25.26
2018-07-08T10:22:59.029Z,25.15
2018-07-08T10:23:59.035Z,25.18
2018-07-08T10:24:59.044Z,25.12
2018-07-08T10:25:59.049Z,24.82
2018-07-08T10:26:59.057Z,24.89
2018-07-08T10:27:59.065Z,24.96
2018-07-08T10:28:59.073Z,25.33
2018-07-08T10:29:59.079Z,25.63
2018-07-08T10:30:59.089Z,26.04
2018-07-08T10:31:59.096Z,26.29
2018-07-08T10:32:59.108Z,26.56
2018-07-08T10:33:59.617Z,26.68
2018-07-08T10:34:59.121Z,26.55
2018-07-08T10:35:59.130Z,26.30
2018-07-08T10:36:59.143Z,26.33
2018-07-08T10:37:59.147Z,26.04
2018-07-08T10:38:59.156Z,25.99
2018-07-08T10:39:59.164Z,26.23
2018-07-08T10:40:59.174Z,26.15
2018-07-08T10:41:59.181Z,25.95
2018-07-08T10:42:59.190Z,26.07
2018-07-08T10:43:59.198Z,26.15
2018-07-08T10:44:59.208Z,25.96
2018-07-08T10:45:59.214Z,25.80
2018-07-08T10:46:59.225Z,25.63
2018-07-08T10:47:59.231Z,25.51
2018-07-08T10:48:59.240Z,25.95
2018-07-08T10:49:59.294Z,26.18
2018-07-08T10:50:59.257Z,26.42
2018-07-08T10:51:59.265Z,26.52
2018-07-08T10:52:59.275Z,26.61
2018-07-08T10:53:59.287Z,26.91
2018-07-08T10:54:59.290Z,26.68
2018-07-08T10:55:59.300Z,26.46
2018-07-08T10:56:59.310Z,26.16
2018-07-08T10:57:59.318Z,26.07
2018-07-08T10:58:59.326Z,25.93
2018-07-08T10:59:59.335Z,25.68
2018-07-08T11:00:59.343Z,25.63
2018-07-08T11:01:59.352Z,25.46
2018-07-08T11:02:59.359Z,25.31
2018-07-08T11:03:59.367Z,25.18
2018-07-08T11:04:59.375Z,25.01
2018-07-08T11:05:59.382Z,24.89
2018-07-08T11:06:59.394Z,24.68
2018-07-08T11:07:59.397Z,24.55
2018-07-08T11:08:59.404Z,24.51
2018-07-08T11:09:59.409Z,24.40
2018-07-08T11:10:59.418Z,24.32
2018-07-08T11:11:59.426Z,24.36
2018-07-08T11:12:59.433Z,24.11
2018-07-08T11:13:59.439Z,24.03
2018-07-08T11:14:59.450Z,24.03
2018-07-08T11:15:59.453Z,24.06
2018-07-08T11:16:59.459Z,24.09
2018-07-08T11:17:59.463Z,24.06
2018-07-08T11:18:59.471Z,23.99
2018-07-08T11:19:59.476Z,23.95
2018-07-08T11:20:59.521Z,23.82
2018-07-08T11:21:59.488Z,23.89
2018-07-08T11:22:59.495Z,23.89
2018-07-08T11:23:59.501Z,23.96
2018-07-08T11:24:59.508Z,23.94
2018-07-08T11:25:59.513Z,23.95
2018-07-08T11:26:59.519Z,24.21
2018-07-08T11:27:59.525Z,24.34
2018-07-08T11:28:59.530Z,24.66
2018-07-08T11:29:59.540Z,24.86
2018-07-08T11:30:59.542Z,25.14
2018-07-08T11:31:59.549Z,25.49
2018-07-08T11:32:59.554Z,25.88
2018-07-08T11:33:59.561Z,26.13
2018-07-08T11:34:59.569Z,26.29
2018-07-08T11:35:59.575Z,26.31
2018-07-08T11:36:59.586Z,26.30
2018-07-08T11:37:59.591Z,26.44
2018-07-08T11:38:59.600Z,26.60
2018-07-08T11:39:59.607Z,26.73
2018-07-08T11:40:59.616Z,26.88
2018-07-08T11:41:59.623Z,26.93
2018-07-08T11:42:59.717Z,26.68
2018-07-08T11:43:59.639Z,26.66
2018-07-08T11:44:59.648Z,26.31
2018-07-08T11:45:59.655Z,26.10
2018-07-08T11:46:59.664Z,25.83
2018-07-08T11:47:59.675Z,25.54
2018-07-08T11:48:59.680Z,25.36
2018-07-08T11:49:59.768Z,25.09
2018-07-08T11:50:59.695Z,25.01
2018-07-08T11:51:59.704Z,25.11
2018-07-08T11:52:59.715Z,24.97
2018-07-08T11:53:59.715Z,24.93
2018-07-08T11:54:59.724Z,24.89
2018-07-08T11:55:59.732Z,24.81
2018-07-08T11:56:59.739Z,24.86
2018-07-08T11:57:59.746Z,24.88
2018-07-08T11:58:59.752Z,24.77
2018-07-08T11:59:59.761Z,24.68
2018-07-08T12:01:00.106Z,24.51
2018-07-08T12:02:00.116Z,24.82
2018-07-08T12:03:00.065Z,24.66
2018-07-08T12:04:00.211Z,24.69
2018-07-08T12:05:00.217Z,24.74
2018-07-08T12:05:59.973Z,24.48
2018-07-08T12:06:59.806Z,24.59
2018-07-08T12:08:00.103Z,24.40
2018-07-08T12:08:59.875Z,24.31
2018-07-08T12:09:59.824Z,24.13
2018-07-08T12:10:59.835Z,24.11
2018-07-08T12:11:59.838Z,24.09
2018-07-08T12:12:59.844Z,24.01
2018-07-08T12:13:59.850Z,23.89
2018-07-08T12:14:59.856Z,23.84
2018-07-08T12:15:59.862Z,23.81
2018-07-08T12:16:59.869Z,23.74
2018-07-08T12:17:59.873Z,23.66
2018-07-08T12:18:59.880Z,23.63
2018-07-08T12:19:59.886Z,23.63
2018-07-08T12:20:59.893Z,23.62
2018-07-08T12:21:59.895Z,23.48
2018-07-08T12:22:59.902Z,23.48
2018-07-08T12:23:59.907Z,23.39
2018-07-08T12:24:59.912Z,23.42
2018-07-08T12:25:59.917Z,23.48
2018-07-08T12:26:59.923Z,23.49
2018-07-08T12:27:59.929Z,23.44
2018-07-08T12:28:59.933Z,23.58
2018-07-08T12:29:59.940Z,23.49
2018-07-08T12:30:59.943Z,23.55
2018-07-08T12:31:59.949Z,23.62
2018-07-08T12:32:59.958Z,23.64
2018-07-08T12:33:59.960Z,23.76
2018-07-08T12:34:59.964Z,23.82
2018-07-08T12:35:59.970Z,23.95
2018-07-08T12:36:59.975Z,24.03
2018-07-08T12:37:59.980Z,24.19
2018-07-08T12:38:59.986Z,24.31
2018-07-08T12:39:59.991Z,24.59
2018-07-08T12:40:59.998Z,24.97
2018-07-08T12:42:00.002Z,25.40
2018-07-08T12:43:00.015Z,25.68
2018-07-08T12:44:00.055Z,25.58
2018-07-08T12:45:00.025Z,25.48
2018-07-08T12:46:00.030Z,25.41
2018-07-08T12:47:00.034Z,25.41
2018-07-08T12:48:00.043Z,25.39
2018-07-08T12:49:00.047Z,25.22
2018-07-08T12:50:00.071Z,25.14
2018-07-08T12:51:00.059Z,25.11
2018-07-08T12:52:00.067Z,24.92
2018-07-08T12:53:00.073Z,24.84